sensor_id;sensor_type;location;lat;lon;timestamp;temperature;humidity
64869;DHT22;51349;52.424;10.840;2023-12-14T00:03:54;4.00;99.90
64869;DHT22;51349;52.424;10.840;2023-12-14T00:08:54;4.00;99.90
64869;DHT22;51349;52.424;10.840;2023-12-14T00:13:55;3.90;99.90
64869;DHT22;51349;52.424;10.840;2023-12-14T00:18:56;3.90;99.90
64869;DHT22;51349;52.424;10.840;2023-12-14T00:23:57;3.90;99.90
64869;DHT22;51349;52.424;10.840;2023-12-14T00:28:57;3.90;99.90
64869;DHT22;51349;52.424;10.840;2023-12-14T00:33:58;3.80;99.90
64869;DHT22;51349;52.424;10.840;2023-12-14T00:38:59;3.80;99.90
64869;DHT22;51349;52.424;10.840;2023-12-14T00:44:00;3.80;99.90
64869;DHT22;51349;52.424;10.840;2023-12-14T00:49:00;3.80;99.90
64869;DHT22;51349;52.424;10.840;2023-12-14T00:54:02;3.70;99.90
64869;DHT22;51349;52.424;10.840;2023-12-14T00:59:03;3.60;99.90
64869;DHT22;51349;52.424;10.840;2023-12-14T01:04:04;3.60;99.90
64869;DHT22;51349;52.424;10.840;2023-12-14T01:09:05;3.60;99.90
64869;DHT22;51349;52.424;10.840;2023-12-14T01:14:06;3.70;99.90
64869;DHT22;51349;52.424;10.840;2023-12-14T01:19:06;3.60;99.90
64869;DHT22;51349;52.424;10.840;2023-12-14T01:24:08;3.60;99.90
64869;DHT22;51349;52.424;10.840;2023-12-14T01:29:08;3.60;99.90
64869;DHT22;51349;52.424;10.840;2023-12-14T01:34:09;3.60;99.90
64869;DHT22;51349;52.424;10.840;2023-12-14T01:39:12;3.60;99.90
64869;DHT22;51349;52.424;10.840;2023-12-14T01:44:13;3.60;99.90
64869;DHT22;51349;52.424;10.840;2023-12-14T01:49:13;3.50;99.90
64869;DHT22;51349;52.424;10.840;2023-12-14T01:54:14;3.50;99.90
64869;DHT22;51349;52.424;10.840;2023-12-14T01:59:15;3.50;99.90
64869;DHT22;51349;52.424;10.840;2023-12-14T02:04:16;3.40;99.90
64869;DHT22;51349;52.424;10.840;2023-12-14T02:09:16;3.50;99.90
64869;DHT22;51349;52.424;10.840;2023-12-14T02:14:17;3.50;99.90
64869;DHT22;51349;52.424;10.840;2023-12-14T02:19:18;3.50;99.90
64869;DHT22;51349;52.424;10.840;2023-12-14T02:24:19;3.40;99.90
64869;DHT22;51349;52.424;10.840;2023-12-14T02:29:19;3.40;99.90
64869;DHT22;51349;52.424;10.840;2023-12-14T02:34:20;3.40;99.90
64869;DHT22;51349;52.424;10.840;2023-12-14T02:39:21;3.40;99.90
64869;DHT22;51349;52.424;10.840;2023-12-14T02:44:21;3.40;99.90
64869;DHT22;51349;52.424;10.840;2023-12-14T02:49:22;3.30;99.90
64869;DHT22;51349;52.424;10.840;2023-12-14T02:54:23;3.30;99.90
64869;DHT22;51349;52.424;10.840;2023-12-14T02:59:24;3.30;99.90
64869;DHT22;51349;52.424;10.840;2023-12-14T03:04:24;3.30;99.90
64869;DHT22;51349;52.424;10.840;2023-12-14T03:09:25;3.30;99.90
64869;DHT22;51349;52.424;10.840;2023-12-14T03:14:26;3.30;99.90
64869;DHT22;51349;52.424;10.840;2023-12-14T03:19:26;3.20;99.90
64869;DHT22;51349;52.424;10.840;2023-12-14T03:24:27;3.30;99.90
64869;DHT22;51349;52.424;10.840;2023-12-14T03:29:28;3.30;99.90
64869;DHT22;51349;52.424;10.840;2023-12-14T03:34:29;3.20;99.90
64869;DHT22;51349;52.424;10.840;2023-12-14T03:39:30;3.20;99.90
64869;DHT22;51349;52.424;10.840;2023-12-14T03:44:31;3.20;99.90
64869;DHT22;51349;52.424;10.840;2023-12-14T03:49:37;3.20;99.90
64869;DHT22;51349;52.424;10.840;2023-12-14T03:54:38;3.20;99.90
64869;DHT22;51349;52.424;10.840;2023-12-14T03:59:39;3.20;99.90
64869;DHT22;51349;52.424;10.840;2023-12-14T04:04:41;3.20;99.90
64869;DHT22;51349;52.424;10.840;2023-12-14T04:09:41;3.20;99.90
64869;DHT22;51349;52.424;10.840;2023-12-14T04:14:42;3.20;99.90
64869;DHT22;51349;52.424;10.840;2023-12-14T04:19:43;3.20;99.90
64869;DHT22;51349;52.424;10.840;2023-12-14T04:24:44;3.20;99.90
64869;DHT22;51349;52.424;10.840;2023-12-14T04:29:45;3.20;99.90
64869;DHT22;51349;52.424;10.840;2023-12-14T04:34:45;3.20;99.90
64869;DHT22;51349;52.424;10.840;2023-12-14T04:39:46;3.20;99.90
64869;DHT22;51349;52.424;10.840;2023-12-14T04:44:47;3.20;99.90
64869;DHT22;51349;52.424;10.840;2023-12-14T04:49:47;3.20;99.90
64869;DHT22;51349;52.424;10.840;2023-12-14T04:54:48;3.10;99.90
64869;DHT22;51349;52.424;10.840;2023-12-14T04:59:49;3.10;99.90
64869;DHT22;51349;52.424;10.840;2023-12-14T05:04:50;3.10;99.90
64869;DHT22;51349;52.424;10.840;2023-12-14T05:09:51;3.10;99.90
64869;DHT22;51349;52.424;10.840;2023-12-14T05:14:52;3.10;99.90
64869;DHT22;51349;52.424;10.840;2023-12-14T05:19:53;3.10;99.90
64869;DHT22;51349;52.424;10.840;2023-12-14T05:24:53;3.00;99.90
64869;DHT22;51349;52.424;10.840;2023-12-14T05:29:55;3.00;99.90
64869;DHT22;51349;52.424;10.840;2023-12-14T05:34:56;3.00;99.90
64869;DHT22;51349;52.424;10.840;2023-12-14T05:39:57;3.00;99.90
64869;DHT22;51349;52.424;10.840;2023-12-14T05:44:57;3.00;99.90
64869;DHT22;51349;52.424;10.840;2023-12-14T05:49:58;3.00;99.90
64869;DHT22;51349;52.424;10.840;2023-12-14T05:54:59;3.00;99.90
64869;DHT22;51349;52.424;10.840;2023-12-14T06:00:00;3.00;99.90
64869;DHT22;51349;52.424;10.840;2023-12-14T06:05:01;3.00;99.90
64869;DHT22;51349;52.424;10.840;2023-12-14T06:10:01;2.90;99.90
64869;DHT22;51349;52.424;10.840;2023-12-14T06:15:02;3.00;99.90
64869;DHT22;51349;52.424;10.840;2023-12-14T06:20:03;3.00;99.90
64869;DHT22;51349;52.424;10.840;2023-12-14T06:25:05;2.90;99.90
64869;DHT22;51349;52.424;10.840;2023-12-14T06:30:07;2.90;99.90
64869;DHT22;51349;52.424;10.840;2023-12-14T06:35:10;2.90;99.90
64869;DHT22;51349;52.424;10.840;2023-12-14T06:40:11;2.90;99.90
64869;DHT22;51349;52.424;10.840;2023-12-14T06:45:11;2.90;99.90
64869;DHT22;51349;52.424;10.840;2023-12-14T06:50:12;3.00;99.90
64869;DHT22;51349;52.424;10.840;2023-12-14T06:55:14;3.00;99.90
64869;DHT22;51349;52.424;10.840;2023-12-14T07:00:15;3.00;99.90
64869;DHT22;51349;52.424;10.840;2023-12-14T07:05:16;3.00;99.90
64869;DHT22;51349;52.424;10.840;2023-12-14T07:10:17;2.90;99.90
64869;DHT22;51349;52.424;10.840;2023-12-14T07:15:18;3.00;99.90
64869;DHT22;51349;52.424;10.840;2023-12-14T07:20:19;3.00;99.90
64869;DHT22;51349;52.424;10.840;2023-12-14T07:25:19;3.00;99.90
64869;DHT22;51349;52.424;10.840;2023-12-14T07:30:20;3.00;99.90
64869;DHT22;51349;52.424;10.840;2023-12-14T07:35:21;3.00;99.90
64869;DHT22;51349;52.424;10.840;2023-12-14T07:40:21;3.00;99.90
64869;DHT22;51349;52.424;10.840;2023-12-14T07:45:22;3.00;99.90
64869;DHT22;51349;52.424;10.840;2023-12-14T07:50:23;3.00;99.90
64869;DHT22;51349;52.424;10.840;2023-12-14T07:55:23;3.00;99.90
64869;DHT22;51349;52.424;10.840;2023-12-14T08:00:24;3.00;99.90
64869;DHT22;51349;52.424;10.840;2023-12-14T08:05:25;3.00;99.90
64869;DHT22;51349;52.424;10.840;2023-12-14T08:10:26;3.00;99.90
64869;DHT22;51349;52.424;10.840;2023-12-14T08:15:27;3.10;99.90
64869;DHT22;51349;52.424;10.840;2023-12-14T08:20:28;3.10;99.90
64869;DHT22;51349;52.424;10.840;2023-12-14T08:25:29;3.00;99.90
64869;DHT22;51349;52.424;10.840;2023-12-14T08:30:29;3.10;99.90
64869;DHT22;51349;52.424;10.840;2023-12-14T08:35:30;3.10;99.90
64869;DHT22;51349;52.424;10.840;2023-12-14T08:40:31;3.10;99.90
64869;DHT22;51349;52.424;10.840;2023-12-14T08:45:35;3.10;99.90
64869;DHT22;51349;52.424;10.840;2023-12-14T08:50:36;3.10;99.90
64869;DHT22;51349;52.424;10.840;2023-12-14T08:55:37;3.20;99.90
64869;DHT22;51349;52.424;10.840;2023-12-14T09:00:38;3.20;99.90
64869;DHT22;51349;52.424;10.840;2023-12-14T09:05:39;3.20;99.90
64869;DHT22;51349;52.424;10.840;2023-12-14T09:10:42;3.20;99.90
64869;DHT22;51349;52.424;10.840;2023-12-14T09:15:43;3.20;99.90
64869;DHT22;51349;52.424;10.840;2023-12-14T09:20:44;3.20;99.90
64869;DHT22;51349;52.424;10.840;2023-12-14T09:25:45;3.20;99.90
64869;DHT22;51349;52.424;10.840;2023-12-14T09:30:46;3.30;99.90
64869;DHT22;51349;52.424;10.840;2023-12-14T09:35:47;3.30;99.90
64869;DHT22;51349;52.424;10.840;2023-12-14T09:40:48;3.30;99.90
64869;DHT22;51349;52.424;10.840;2023-12-14T09:45:49;3.30;99.90
64869;DHT22;51349;52.424;10.840;2023-12-14T09:50:50;3.30;99.90
64869;DHT22;51349;52.424;10.840;2023-12-14T09:55:52;3.30;99.90
64869;DHT22;51349;52.424;10.840;2023-12-14T10:00:53;3.30;99.90
64869;DHT22;51349;52.424;10.840;2023-12-14T10:05:57;3.30;99.90
64869;DHT22;51349;52.424;10.840;2023-12-14T10:10:58;3.40;99.90
64869;DHT22;51349;52.424;10.840;2023-12-14T10:16:01;3.40;99.90
64869;DHT22;51349;52.424;10.840;2023-12-14T10:21:02;3.40;99.90
64869;DHT22;51349;52.424;10.840;2023-12-14T10:26:04;3.50;99.90
64869;DHT22;51349;52.424;10.840;2023-12-14T10:31:05;3.50;99.90
64869;DHT22;51349;52.424;10.840;2023-12-14T10:36:07;3.40;99.90
64869;DHT22;51349;52.424;10.840;2023-12-14T10:41:09;3.50;99.90
64869;DHT22;51349;52.424;10.840;2023-12-14T10:46:11;3.50;99.90
64869;DHT22;51349;52.424;10.840;2023-12-14T10:51:13;3.50;99.90
64869;DHT22;51349;52.424;10.840;2023-12-14T10:56:16;3.50;99.90
64869;DHT22;51349;52.424;10.840;2023-12-14T11:01:19;3.50;99.90
64869;DHT22;51349;52.424;10.840;2023-12-14T11:06:28;3.60;99.90
64869;DHT22;51349;52.424;10.840;2023-12-14T11:11:31;3.60;99.90
64869;DHT22;51349;52.424;10.840;2023-12-14T11:16:39;3.60;99.90
64869;DHT22;51349;52.424;10.840;2023-12-14T11:27:08;3.60;99.90
64869;DHT22;51349;52.424;10.840;2023-12-14T11:32:08;3.70;99.90
64869;DHT22;51349;52.424;10.840;2023-12-14T11:37:10;3.70;99.90
64869;DHT22;51349;52.424;10.840;2023-12-14T11:42:11;3.60;99.90
64869;DHT22;51349;52.424;10.840;2023-12-14T11:47:15;3.70;99.90
64869;DHT22;51349;52.424;10.840;2023-12-14T11:52:18;3.70;99.90
64869;DHT22;51349;52.424;10.840;2023-12-14T11:57:18;3.60;99.90
64869;DHT22;51349;52.424;10.840;2023-12-14T12:02:23;3.70;99.90
64869;DHT22;51349;52.424;10.840;2023-12-14T12:07:25;3.70;99.90
64869;DHT22;51349;52.424;10.840;2023-12-14T12:12:26;3.70;99.90
64869;DHT22;51349;52.424;10.840;2023-12-14T12:17:26;3.70;99.90
64869;DHT22;51349;52.424;10.840;2023-12-14T12:22:27;3.70;99.90
64869;DHT22;51349;52.424;10.840;2023-12-14T12:27:28;3.70;99.90
64869;DHT22;51349;52.424;10.840;2023-12-14T12:32:28;3.80;99.90
64869;DHT22;51349;52.424;10.840;2023-12-14T12:37:29;3.80;99.90
64869;DHT22;51349;52.424;10.840;2023-12-14T12:42:30;3.80;99.90
64869;DHT22;51349;52.424;10.840;2023-12-14T12:47:31;3.80;99.90
64869;DHT22;51349;52.424;10.840;2023-12-14T12:52:31;3.80;99.90
64869;DHT22;51349;52.424;10.840;2023-12-14T12:57:32;3.80;99.90
64869;DHT22;51349;52.424;10.840;2023-12-14T13:02:33;3.80;99.90
64869;DHT22;51349;52.424;10.840;2023-12-14T13:07:35;3.80;99.90
64869;DHT22;51349;52.424;10.840;2023-12-14T13:12:36;3.80;99.90
64869;DHT22;51349;52.424;10.840;2023-12-14T13:17:37;3.70;99.90
64869;DHT22;51349;52.424;10.840;2023-12-14T13:22:38;3.80;99.90
64869;DHT22;51349;52.424;10.840;2023-12-14T13:27:40;3.70;99.90
64869;DHT22;51349;52.424;10.840;2023-12-14T13:32:41;3.80;99.90
64869;DHT22;51349;52.424;10.840;2023-12-14T13:37:42;3.80;99.90
64869;DHT22;51349;52.424;10.840;2023-12-14T13:42:43;3.80;99.90
64869;DHT22;51349;52.424;10.840;2023-12-14T13:47:43;3.80;99.90
64869;DHT22;51349;52.424;10.840;2023-12-14T13:52:44;3.80;99.90
64869;DHT22;51349;52.424;10.840;2023-12-14T13:57:45;3.80;99.90
64869;DHT22;51349;52.424;10.840;2023-12-14T14:02:51;3.80;99.90
64869;DHT22;51349;52.424;10.840;2023-12-14T14:07:52;3.80;99.90
64869;DHT22;51349;52.424;10.840;2023-12-14T14:12:57;3.80;99.90
64869;DHT22;51349;52.424;10.840;2023-12-14T14:17:58;3.80;99.90
64869;DHT22;51349;52.424;10.840;2023-12-14T14:23:01;3.80;99.90
64869;DHT22;51349;52.424;10.840;2023-12-14T14:28:05;3.80;99.90
64869;DHT22;51349;52.424;10.840;2023-12-14T14:33:06;3.80;99.90
64869;DHT22;51349;52.424;10.840;2023-12-14T14:38:06;3.70;99.90
64869;DHT22;51349;52.424;10.840;2023-12-14T14:43:08;3.70;99.90
64869;DHT22;51349;52.424;10.840;2023-12-14T14:48:09;3.80;99.90
64869;DHT22;51349;52.424;10.840;2023-12-14T14:53:10;3.80;99.90
64869;DHT22;51349;52.424;10.840;2023-12-14T14:58:13;3.70;99.90
64869;DHT22;51349;52.424;10.840;2023-12-14T15:03:14;3.70;99.90
64869;DHT22;51349;52.424;10.840;2023-12-14T15:08:18;3.70;99.90
64869;DHT22;51349;52.424;10.840;2023-12-14T15:13:19;3.70;99.90
64869;DHT22;51349;52.424;10.840;2023-12-14T15:18:19;3.70;99.90
64869;DHT22;51349;52.424;10.840;2023-12-14T15:23:20;3.60;99.90
64869;DHT22;51349;52.424;10.840;2023-12-14T15:28:21;3.60;99.90
64869;DHT22;51349;52.424;10.840;2023-12-14T15:33:22;3.60;99.90
64869;DHT22;51349;52.424;10.840;2023-12-14T15:38:22;3.60;99.90
64869;DHT22;51349;52.424;10.840;2023-12-14T15:43:23;3.60;99.90
64869;DHT22;51349;52.424;10.840;2023-12-14T15:48:24;3.50;99.90
64869;DHT22;51349;52.424;10.840;2023-12-14T15:53:25;3.50;99.90
64869;DHT22;51349;52.424;10.840;2023-12-14T15:58:26;3.50;99.90
64869;DHT22;51349;52.424;10.840;2023-12-14T16:03:28;3.50;99.90
64869;DHT22;51349;52.424;10.840;2023-12-14T16:08:29;3.50;99.90
64869;DHT22;51349;52.424;10.840;2023-12-14T16:13:29;3.50;99.90
64869;DHT22;51349;52.424;10.840;2023-12-14T16:18:30;3.50;99.90
64869;DHT22;51349;52.424;10.840;2023-12-14T16:23:31;3.60;99.90
64869;DHT22;51349;52.424;10.840;2023-12-14T16:28:32;3.50;99.90
64869;DHT22;51349;52.424;10.840;2023-12-14T16:33:36;3.50;99.90
64869;DHT22;51349;52.424;10.840;2023-12-14T16:38:37;3.50;99.90
64869;DHT22;51349;52.424;10.840;2023-12-14T16:43:38;3.50;99.90
64869;DHT22;51349;52.424;10.840;2023-12-14T16:48:39;3.50;99.90
64869;DHT22;51349;52.424;10.840;2023-12-14T16:53:40;3.50;99.90
64869;DHT22;51349;52.424;10.840;2023-12-14T16:58:42;3.50;99.90
64869;DHT22;51349;52.424;10.840;2023-12-14T17:03:43;3.50;99.90
64869;DHT22;51349;52.424;10.840;2023-12-14T17:08:43;3.50;99.90
64869;DHT22;51349;52.424;10.840;2023-12-14T17:13:44;3.50;99.90
64869;DHT22;51349;52.424;10.840;2023-12-14T17:18:45;3.50;99.90
64869;DHT22;51349;52.424;10.840;2023-12-14T17:23:47;3.50;99.90
64869;DHT22;51349;52.424;10.840;2023-12-14T17:28:55;3.50;99.90
64869;DHT22;51349;52.424;10.840;2023-12-14T17:33:56;3.50;99.90
64869;DHT22;51349;52.424;10.840;2023-12-14T17:38:57;3.50;99.90
64869;DHT22;51349;52.424;10.840;2023-12-14T17:43:58;3.40;99.90
64869;DHT22;51349;52.424;10.840;2023-12-14T17:48:59;3.50;99.90
64869;DHT22;51349;52.424;10.840;2023-12-14T17:53:59;3.40;99.90
64869;DHT22;51349;52.424;10.840;2023-12-14T17:59:00;3.50;99.90
64869;DHT22;51349;52.424;10.840;2023-12-14T18:04:01;3.50;99.90
64869;DHT22;51349;52.424;10.840;2023-12-14T18:09:02;3.50;99.90
64869;DHT22;51349;52.424;10.840;2023-12-14T18:14:04;3.50;99.90
64869;DHT22;51349;52.424;10.840;2023-12-14T18:19:06;3.40;99.90
64869;DHT22;51349;52.424;10.840;2023-12-14T18:24:07;3.40;99.90
64869;DHT22;51349;52.424;10.840;2023-12-14T18:29:08;3.40;99.90
64869;DHT22;51349;52.424;10.840;2023-12-14T18:34:08;3.40;99.90
64869;DHT22;51349;52.424;10.840;2023-12-14T18:39:10;3.30;99.90
64869;DHT22;51349;52.424;10.840;2023-12-14T18:44:11;3.30;99.90
64869;DHT22;51349;52.424;10.840;2023-12-14T18:49:12;3.20;99.90
64869;DHT22;51349;52.424;10.840;2023-12-14T18:54:13;3.10;99.90
64869;DHT22;51349;52.424;10.840;2023-12-14T18:59:14;3.10;99.90
64869;DHT22;51349;52.424;10.840;2023-12-14T19:04:17;2.90;99.90
64869;DHT22;51349;52.424;10.840;2023-12-14T19:09:18;2.80;99.90
64869;DHT22;51349;52.424;10.840;2023-12-14T19:14:20;2.70;99.90
64869;DHT22;51349;52.424;10.840;2023-12-14T19:19:20;2.70;99.90
64869;DHT22;51349;52.424;10.840;2023-12-14T19:24:21;2.70;99.90
64869;DHT22;51349;52.424;10.840;2023-12-14T19:29:22;2.50;99.90
64869;DHT22;51349;52.424;10.840;2023-12-14T19:34:23;2.30;99.90
64869;DHT22;51349;52.424;10.840;2023-12-14T19:39:23;2.30;99.90
64869;DHT22;51349;52.424;10.840;2023-12-14T19:44:25;2.40;99.90
64869;DHT22;51349;52.424;10.840;2023-12-14T19:49:25;2.50;99.90
64869;DHT22;51349;52.424;10.840;2023-12-14T19:54:28;2.50;99.90
64869;DHT22;51349;52.424;10.840;2023-12-14T19:59:29;2.30;99.90
64869;DHT22;51349;52.424;10.840;2023-12-14T20:04:30;2.40;99.90
64869;DHT22;51349;52.424;10.840;2023-12-14T20:09:31;2.30;99.90
64869;DHT22;51349;52.424;10.840;2023-12-14T20:14:35;2.30;99.90
64869;DHT22;51349;52.424;10.840;2023-12-14T20:19:36;2.40;99.90
64869;DHT22;51349;52.424;10.840;2023-12-14T20:24:37;2.40;99.90
64869;DHT22;51349;52.424;10.840;2023-12-14T20:29:37;2.40;99.90
64869;DHT22;51349;52.424;10.840;2023-12-14T20:34:38;2.40;99.90
64869;DHT22;51349;52.424;10.840;2023-12-14T20:39:40;2.40;99.90
64869;DHT22;51349;52.424;10.840;2023-12-14T20:44:40;2.40;99.90
64869;DHT22;51349;52.424;10.840;2023-12-14T20:49:41;2.40;99.90
64869;DHT22;51349;52.424;10.840;2023-12-14T20:54:42;2.40;99.90
64869;DHT22;51349;52.424;10.840;2023-12-14T20:59:43;2.30;99.90
64869;DHT22;51349;52.424;10.840;2023-12-14T21:04:43;2.30;99.90
64869;DHT22;51349;52.424;10.840;2023-12-14T21:09:44;2.30;99.90
64869;DHT22;51349;52.424;10.840;2023-12-14T21:14:45;2.20;99.90
64869;DHT22;51349;52.424;10.840;2023-12-14T21:19:51;2.20;99.90
64869;DHT22;51349;52.424;10.840;2023-12-14T21:24:52;2.10;99.90
64869;DHT22;51349;52.424;10.840;2023-12-14T21:30:00;2.10;99.90
64869;DHT22;51349;52.424;10.840;2023-12-14T21:35:00;2.10;99.90
64869;DHT22;51349;52.424;10.840;2023-12-14T21:40:02;2.10;99.90
64869;DHT22;51349;52.424;10.840;2023-12-14T21:45:03;2.10;99.90
64869;DHT22;51349;52.424;10.840;2023-12-14T21:50:04;2.10;99.90
64869;DHT22;51349;52.424;10.840;2023-12-14T21:55:05;2.10;99.90
64869;DHT22;51349;52.424;10.840;2023-12-14T22:00:07;2.10;99.90
64869;DHT22;51349;52.424;10.840;2023-12-14T22:05:08;2.00;99.90
64869;DHT22;51349;52.424;10.840;2023-12-14T22:10:09;2.00;99.90
64869;DHT22;51349;52.424;10.840;2023-12-14T22:15:16;1.90;99.90
64869;DHT22;51349;52.424;10.840;2023-12-14T22:20:16;1.80;99.90
64869;DHT22;51349;52.424;10.840;2023-12-14T22:25:17;1.60;99.90
64869;DHT22;51349;52.424;10.840;2023-12-14T22:30:18;1.50;99.90
64869;DHT22;51349;52.424;10.840;2023-12-14T22:35:18;1.50;99.90
64869;DHT22;51349;52.424;10.840;2023-12-14T22:40:19;1.50;99.90
64869;DHT22;51349;52.424;10.840;2023-12-14T22:45:20;1.50;99.90
64869;DHT22;51349;52.424;10.840;2023-12-14T22:50:21;1.50;99.90
64869;DHT22;51349;52.424;10.840;2023-12-14T22:55:21;1.50;99.90
64869;DHT22;51349;52.424;10.840;2023-12-14T23:00:22;1.50;99.90
64869;DHT22;51349;52.424;10.840;2023-12-14T23:05:27;1.60;99.90
64869;DHT22;51349;52.424;10.840;2023-12-14T23:10:28;1.70;99.90
64869;DHT22;51349;52.424;10.840;2023-12-14T23:15:28;1.70;99.90
64869;DHT22;51349;52.424;10.840;2023-12-14T23:20:29;1.70;99.90
64869;DHT22;51349;52.424;10.840;2023-12-14T23:25:30;1.70;99.90
64869;DHT22;51349;52.424;10.840;2023-12-14T23:30:30;1.60;99.90
64869;DHT22;51349;52.424;10.840;2023-12-14T23:35:31;1.60;99.90
64869;DHT22;51349;52.424;10.840;2023-12-14T23:40:32;1.60;99.90
64869;DHT22;51349;52.424;10.840;2023-12-14T23:45:33;1.60;99.90
64869;DHT22;51349;52.424;10.840;2023-12-14T23:50:34;1.60;99.90
64869;DHT22;51349;52.424;10.840;2023-12-14T23:55:34;1.50;99.90
